sensor_id;sensor_type;location;lat;lon;timestamp;P1;durP1;ratioP1;P2;durP2;ratioP2
22359;SDS011;11347;52.030;4.690;2022-10-19T00:00:15;3.40;;;1.17;;
22359;SDS011;11347;52.030;4.690;2022-10-19T00:02:41;5.50;;;1.40;;
22359;SDS011;11347;52.030;4.690;2022-10-19T00:05:06;3.53;;;1.20;;
22359;SDS011;11347;52.030;4.690;2022-10-19T00:07:32;4.37;;;1.40;;
22359;SDS011;11347;52.030;4.690;2022-10-19T00:10:00;4.97;;;1.37;;
22359;SDS011;11347;52.030;4.690;2022-10-19T00:12:27;5.63;;;1.43;;
22359;SDS011;11347;52.030;4.690;2022-10-19T00:14:52;4.63;;;1.47;;
22359;SDS011;11347;52.030;4.690;2022-10-19T00:17:18;7.57;;;1.53;;
22359;SDS011;11347;52.030;4.690;2022-10-19T00:19:43;3.73;;;1.30;;
22359;SDS011;11347;52.030;4.690;2022-10-19T00:22:09;3.23;;;1.40;;
22359;SDS011;11347;52.030;4.690;2022-10-19T00:24:34;3.17;;;1.20;;
22359;SDS011;11347;52.030;4.690;2022-10-19T00:27:00;6.33;;;1.20;;
22359;SDS011;11347;52.030;4.690;2022-10-19T00:29:25;3.90;;;1.17;;
22359;SDS011;11347;52.030;4.690;2022-10-19T00:31:51;4.80;;;1.17;;
22359;SDS011;11347;52.030;4.690;2022-10-19T00:34:16;4.33;;;1.20;;
22359;SDS011;11347;52.030;4.690;2022-10-19T00:36:42;4.17;;;1.40;;
22359;SDS011;11347;52.030;4.690;2022-10-19T00:39:12;4.77;;;1.33;;
22359;SDS011;11347;52.030;4.690;2022-10-19T00:41:40;3.67;;;1.20;;
22359;SDS011;11347;52.030;4.690;2022-10-19T00:46:43;4.13;;;1.30;;
22359;SDS011;11347;52.030;4.690;2022-10-19T00:51:54;3.57;;;1.30;;
22359;SDS011;11347;52.030;4.690;2022-10-19T00:54:22;3.17;;;1.23;;
22359;SDS011;11347;52.030;4.690;2022-10-19T00:56:49;2.40;;;1.10;;
22359;SDS011;11347;52.030;4.690;2022-10-19T00:59:19;5.20;;;1.27;;
22359;SDS011;11347;52.030;4.690;2022-10-19T01:01:46;3.50;;;1.20;;
22359;SDS011;11347;52.030;4.690;2022-10-19T01:04:13;2.93;;;1.00;;
22359;SDS011;11347;52.030;4.690;2022-10-19T01:06:39;4.20;;;1.10;;
22359;SDS011;11347;52.030;4.690;2022-10-19T01:09:06;4.53;;;1.20;;
22359;SDS011;11347;52.030;4.690;2022-10-19T01:11:38;4.10;;;1.87;;
22359;SDS011;11347;52.030;4.690;2022-10-19T01:20:08;2.13;;;1.00;;
22359;SDS011;11347;52.030;4.690;2022-10-19T01:23:15;4.57;;;1.17;;
22359;SDS011;11347;52.030;4.690;2022-10-19T01:25:54;3.03;;;1.13;;
22359;SDS011;11347;52.030;4.690;2022-10-19T01:28:46;3.17;;;1.00;;
22359;SDS011;11347;52.030;4.690;2022-10-19T01:31:32;3.83;;;1.13;;
22359;SDS011;11347;52.030;4.690;2022-10-19T01:36:56;4.53;;;1.10;;
22359;SDS011;11347;52.030;4.690;2022-10-19T01:39:56;3.27;;;0.87;;
22359;SDS011;11347;52.030;4.690;2022-10-19T01:42:58;2.13;;;0.80;;
22359;SDS011;11347;52.030;4.690;2022-10-19T01:45:39;1.10;;;0.77;;
22359;SDS011;11347;52.030;4.690;2022-10-19T01:48:19;3.50;;;1.63;;
22359;SDS011;11347;52.030;4.690;2022-10-19T01:51:05;2.30;;;0.70;;
22359;SDS011;11347;52.030;4.690;2022-10-19T01:53:39;3.27;;;1.03;;
22359;SDS011;11347;52.030;4.690;2022-10-19T01:56:08;2.73;;;0.90;;
22359;SDS011;11347;52.030;4.690;2022-10-19T01:58:35;1.53;;;0.87;;
22359;SDS011;11347;52.030;4.690;2022-10-19T02:01:04;1.10;;;0.97;;
22359;SDS011;11347;52.030;4.690;2022-10-19T02:03:33;1.40;;;0.80;;
22359;SDS011;11347;52.030;4.690;2022-10-19T02:06:00;2.20;;;0.90;;
22359;SDS011;11347;52.030;4.690;2022-10-19T02:08:39;3.37;;;1.27;;
22359;SDS011;11347;52.030;4.690;2022-10-19T02:11:08;2.30;;;0.80;;
22359;SDS011;11347;52.030;4.690;2022-10-19T02:13:34;2.23;;;0.90;;
22359;SDS011;11347;52.030;4.690;2022-10-19T02:16:03;2.07;;;0.90;;
22359;SDS011;11347;52.030;4.690;2022-10-19T02:18:39;1.83;;;0.90;;
22359;SDS011;11347;52.030;4.690;2022-10-19T02:21:08;2.73;;;0.90;;
22359;SDS011;11347;52.030;4.690;2022-10-19T02:23:34;2.63;;;0.90;;
22359;SDS011;11347;52.030;4.690;2022-10-19T02:26:00;1.90;;;0.80;;
22359;SDS011;11347;52.030;4.690;2022-10-19T02:28:26;1.13;;;0.70;;
22359;SDS011;11347;52.030;4.690;2022-10-19T02:30:53;2.80;;;0.80;;
22359;SDS011;11347;52.030;4.690;2022-10-19T02:33:19;1.33;;;0.70;;
22359;SDS011;11347;52.030;4.690;2022-10-19T02:35:45;2.50;;;0.80;;
22359;SDS011;11347;52.030;4.690;2022-10-19T02:38:13;1.57;;;0.70;;
22359;SDS011;11347;52.030;4.690;2022-10-19T02:40:45;2.00;;;0.80;;
22359;SDS011;11347;52.030;4.690;2022-10-19T02:43:16;0.90;;;0.50;;
22359;SDS011;11347;52.030;4.690;2022-10-19T02:45:47;3.47;;;0.80;;
22359;SDS011;11347;52.030;4.690;2022-10-19T02:48:28;1.47;;;0.70;;
22359;SDS011;11347;52.030;4.690;2022-10-19T02:50:56;1.57;;;0.80;;
22359;SDS011;11347;52.030;4.690;2022-10-19T02:53:21;1.10;;;0.60;;
22359;SDS011;11347;52.030;4.690;2022-10-19T02:55:47;1.27;;;0.60;;
22359;SDS011;11347;52.030;4.690;2022-10-19T02:58:14;1.87;;;0.73;;
22359;SDS011;11347;52.030;4.690;2022-10-19T03:00:40;2.27;;;0.70;;
22359;SDS011;11347;52.030;4.690;2022-10-19T03:03:05;3.77;;;1.00;;
22359;SDS011;11347;52.030;4.690;2022-10-19T03:05:31;1.43;;;0.77;;
22359;SDS011;11347;52.030;4.690;2022-10-19T03:07:57;1.13;;;0.80;;
22359;SDS011;11347;52.030;4.690;2022-10-19T03:10:22;1.67;;;0.63;;
22359;SDS011;11347;52.030;4.690;2022-10-19T03:12:48;2.10;;;0.60;;
22359;SDS011;11347;52.030;4.690;2022-10-19T03:15:14;2.27;;;0.90;;
22359;SDS011;11347;52.030;4.690;2022-10-19T03:17:41;1.27;;;0.60;;
22359;SDS011;11347;52.030;4.690;2022-10-19T03:20:07;2.13;;;0.60;;
22359;SDS011;11347;52.030;4.690;2022-10-19T03:22:33;3.07;;;0.80;;
22359;SDS011;11347;52.030;4.690;2022-10-19T03:24:59;1.17;;;0.70;;
22359;SDS011;11347;52.030;4.690;2022-10-19T03:27:24;1.40;;;0.70;;
22359;SDS011;11347;52.030;4.690;2022-10-19T03:29:50;4.30;;;0.87;;
22359;SDS011;11347;52.030;4.690;2022-10-19T03:32:15;3.07;;;0.70;;
22359;SDS011;11347;52.030;4.690;2022-10-19T03:34:41;2.83;;;0.83;;
22359;SDS011;11347;52.030;4.690;2022-10-19T03:37:07;1.23;;;0.60;;
22359;SDS011;11347;52.030;4.690;2022-10-19T03:39:32;3.50;;;0.80;;
22359;SDS011;11347;52.030;4.690;2022-10-19T03:41:58;1.00;;;0.50;;
22359;SDS011;11347;52.030;4.690;2022-10-19T03:44:24;2.10;;;0.70;;
22359;SDS011;11347;52.030;4.690;2022-10-19T03:46:49;1.43;;;0.60;;
22359;SDS011;11347;52.030;4.690;2022-10-19T03:49:15;1.43;;;0.60;;
22359;SDS011;11347;52.030;4.690;2022-10-19T03:51:40;1.40;;;0.70;;
22359;SDS011;11347;52.030;4.690;2022-10-19T03:54:07;0.67;;;0.50;;
22359;SDS011;11347;52.030;4.690;2022-10-19T03:56:37;1.57;;;0.50;;
22359;SDS011;11347;52.030;4.690;2022-10-19T03:59:03;1.53;;;0.70;;
22359;SDS011;11347;52.030;4.690;2022-10-19T04:01:31;0.83;;;0.60;;
22359;SDS011;11347;52.030;4.690;2022-10-19T04:04:01;2.80;;;0.60;;
22359;SDS011;11347;52.030;4.690;2022-10-19T04:06:30;1.40;;;0.50;;
22359;SDS011;11347;52.030;4.690;2022-10-19T04:08:57;1.20;;;0.50;;
22359;SDS011;11347;52.030;4.690;2022-10-19T04:11:24;1.97;;;0.70;;
22359;SDS011;11347;52.030;4.690;2022-10-19T04:13:52;1.37;;;0.60;;
22359;SDS011;11347;52.030;4.690;2022-10-19T04:16:19;2.77;;;0.80;;
22359;SDS011;11347;52.030;4.690;2022-10-19T04:18:45;2.67;;;0.77;;
22359;SDS011;11347;52.030;4.690;2022-10-19T04:21:46;1.90;;;0.70;;
22359;SDS011;11347;52.030;4.690;2022-10-19T04:26:38;2.30;;;0.80;;
22359;SDS011;11347;52.030;4.690;2022-10-19T04:29:05;1.40;;;0.60;;
22359;SDS011;11347;52.030;4.690;2022-10-19T04:31:31;1.83;;;0.70;;
22359;SDS011;11347;52.030;4.690;2022-10-19T04:33:57;1.17;;;0.60;;
22359;SDS011;11347;52.030;4.690;2022-10-19T04:36:22;1.97;;;0.60;;
22359;SDS011;11347;52.030;4.690;2022-10-19T04:38:48;2.07;;;0.70;;
22359;SDS011;11347;52.030;4.690;2022-10-19T04:41:15;2.20;;;0.70;;
22359;SDS011;11347;52.030;4.690;2022-10-19T04:43:42;2.20;;;0.90;;
22359;SDS011;11347;52.030;4.690;2022-10-19T04:46:12;1.73;;;0.60;;
22359;SDS011;11347;52.030;4.690;2022-10-19T04:48:40;2.97;;;0.70;;
22359;SDS011;11347;52.030;4.690;2022-10-19T04:51:07;2.70;;;0.70;;
22359;SDS011;11347;52.030;4.690;2022-10-19T04:53:33;1.70;;;0.70;;
22359;SDS011;11347;52.030;4.690;2022-10-19T04:56:03;1.30;;;0.67;;
22359;SDS011;11347;52.030;4.690;2022-10-19T04:58:29;1.10;;;0.50;;
22359;SDS011;11347;52.030;4.690;2022-10-19T05:00:55;1.50;;;0.60;;
22359;SDS011;11347;52.030;4.690;2022-10-19T05:03:20;3.03;;;0.73;;
22359;SDS011;11347;52.030;4.690;2022-10-19T05:05:46;1.23;;;0.60;;
22359;SDS011;11347;52.030;4.690;2022-10-19T05:08:12;3.30;;;0.67;;
22359;SDS011;11347;52.030;4.690;2022-10-19T05:10:37;1.93;;;0.90;;
22359;SDS011;11347;52.030;4.690;2022-10-19T05:13:03;1.40;;;0.60;;
22359;SDS011;11347;52.030;4.690;2022-10-19T05:15:29;1.17;;;0.50;;
22359;SDS011;11347;52.030;4.690;2022-10-19T05:17:55;5.13;;;0.93;;
22359;SDS011;11347;52.030;4.690;2022-10-19T05:20:21;3.47;;;0.80;;
22359;SDS011;11347;52.030;4.690;2022-10-19T05:22:46;1.33;;;0.60;;
22359;SDS011;11347;52.030;4.690;2022-10-19T05:25:12;2.30;;;0.73;;
22359;SDS011;11347;52.030;4.690;2022-10-19T05:27:38;0.87;;;0.50;;
22359;SDS011;11347;52.030;4.690;2022-10-19T05:30:03;3.00;;;0.70;;
22359;SDS011;11347;52.030;4.690;2022-10-19T05:32:30;2.53;;;0.77;;
22359;SDS011;11347;52.030;4.690;2022-10-19T05:34:56;3.67;;;0.80;;
22359;SDS011;11347;52.030;4.690;2022-10-19T05:37:21;2.23;;;0.80;;
22359;SDS011;11347;52.030;4.690;2022-10-19T05:39:47;1.37;;;0.73;;
22359;SDS011;11347;52.030;4.690;2022-10-19T05:42:12;3.30;;;0.80;;
22359;SDS011;11347;52.030;4.690;2022-10-19T05:44:38;3.73;;;1.00;;
22359;SDS011;11347;52.030;4.690;2022-10-19T05:47:04;3.27;;;0.80;;
22359;SDS011;11347;52.030;4.690;2022-10-19T05:49:29;3.70;;;0.90;;
22359;SDS011;11347;52.030;4.690;2022-10-19T05:51:55;3.17;;;0.90;;
22359;SDS011;11347;52.030;4.690;2022-10-19T05:54:20;2.07;;;0.80;;
22359;SDS011;11347;52.030;4.690;2022-10-19T05:56:46;3.17;;;0.90;;
22359;SDS011;11347;52.030;4.690;2022-10-19T05:59:16;1.60;;;0.57;;
22359;SDS011;11347;52.030;4.690;2022-10-19T06:01:43;2.70;;;0.70;;
22359;SDS011;11347;52.030;4.690;2022-10-19T06:04:09;2.27;;;0.77;;
22359;SDS011;11347;52.030;4.690;2022-10-19T06:06:35;1.87;;;0.53;;
22359;SDS011;11347;52.030;4.690;2022-10-19T06:09:00;2.80;;;1.03;;
22359;SDS011;11347;52.030;4.690;2022-10-19T06:11:31;2.97;;;0.80;;
22359;SDS011;11347;52.030;4.690;2022-10-19T06:14:02;3.20;;;0.90;;
22359;SDS011;11347;52.030;4.690;2022-10-19T06:16:30;2.03;;;0.70;;
22359;SDS011;11347;52.030;4.690;2022-10-19T06:18:57;3.63;;;0.93;;
22359;SDS011;11347;52.030;4.690;2022-10-19T06:21:24;2.67;;;0.80;;
22359;SDS011;11347;52.030;4.690;2022-10-19T06:23:53;4.60;;;1.00;;
22359;SDS011;11347;52.030;4.690;2022-10-19T06:26:20;1.70;;;0.60;;
22359;SDS011;11347;52.030;4.690;2022-10-19T06:28:47;1.67;;;0.70;;
22359;SDS011;11347;52.030;4.690;2022-10-19T06:31:13;2.80;;;0.80;;
22359;SDS011;11347;52.030;4.690;2022-10-19T06:33:39;2.50;;;0.67;;
22359;SDS011;11347;52.030;4.690;2022-10-19T06:36:13;2.97;;;0.80;;
22359;SDS011;11347;52.030;4.690;2022-10-19T06:38:40;2.03;;;0.63;;
22359;SDS011;11347;52.030;4.690;2022-10-19T06:41:06;2.53;;;0.60;;
22359;SDS011;11347;52.030;4.690;2022-10-19T06:43:32;1.40;;;0.70;;
22359;SDS011;11347;52.030;4.690;2022-10-19T06:46:02;3.90;;;0.77;;
22359;SDS011;11347;52.030;4.690;2022-10-19T06:48:29;3.17;;;0.90;;
22359;SDS011;11347;52.030;4.690;2022-10-19T06:50:55;3.77;;;0.90;;
22359;SDS011;11347;52.030;4.690;2022-10-19T06:53:22;1.40;;;0.70;;
22359;SDS011;11347;52.030;4.690;2022-10-19T06:55:48;2.63;;;0.60;;
22359;SDS011;11347;52.030;4.690;2022-10-19T06:58:13;1.73;;;0.80;;
22359;SDS011;11347;52.030;4.690;2022-10-19T07:00:39;2.93;;;0.70;;
22359;SDS011;11347;52.030;4.690;2022-10-19T07:03:04;3.27;;;0.80;;
22359;SDS011;11347;52.030;4.690;2022-10-19T07:05:30;2.00;;;0.87;;
22359;SDS011;11347;52.030;4.690;2022-10-19T07:07:56;2.43;;;0.77;;
22359;SDS011;11347;52.030;4.690;2022-10-19T07:10:21;4.83;;;0.97;;
22359;SDS011;11347;52.030;4.690;2022-10-19T07:12:47;1.90;;;0.60;;
22359;SDS011;11347;52.030;4.690;2022-10-19T07:15:13;2.97;;;0.90;;
22359;SDS011;11347;52.030;4.690;2022-10-19T07:17:38;2.17;;;0.80;;
22359;SDS011;11347;52.030;4.690;2022-10-19T07:20:04;3.13;;;0.90;;
22359;SDS011;11347;52.030;4.690;2022-10-19T07:22:30;4.03;;;0.80;;
22359;SDS011;11347;52.030;4.690;2022-10-19T07:24:56;4.70;;;0.97;;
22359;SDS011;11347;52.030;4.690;2022-10-19T07:27:22;2.50;;;0.83;;
22359;SDS011;11347;52.030;4.690;2022-10-19T07:29:48;3.27;;;0.80;;
22359;SDS011;11347;52.030;4.690;2022-10-19T07:32:14;2.67;;;0.80;;
22359;SDS011;11347;52.030;4.690;2022-10-19T07:34:39;2.97;;;0.90;;
22359;SDS011;11347;52.030;4.690;2022-10-19T07:37:05;8.10;;;1.00;;
22359;SDS011;11347;52.030;4.690;2022-10-19T07:39:30;3.47;;;0.93;;
22359;SDS011;11347;52.030;4.690;2022-10-19T07:41:56;2.90;;;0.90;;
22359;SDS011;11347;52.030;4.690;2022-10-19T07:44:22;1.93;;;0.70;;
22359;SDS011;11347;52.030;4.690;2022-10-19T07:46:48;3.17;;;0.80;;
22359;SDS011;11347;52.030;4.690;2022-10-19T07:49:14;8.90;;;1.00;;
22359;SDS011;11347;52.030;4.690;2022-10-19T07:51:42;3.03;;;0.77;;
22359;SDS011;11347;52.030;4.690;2022-10-19T07:54:08;3.33;;;1.00;;
22359;SDS011;11347;52.030;4.690;2022-10-19T07:56:34;2.37;;;0.83;;
22359;SDS011;11347;52.030;4.690;2022-10-19T07:59:00;7.30;;;1.20;;
22359;SDS011;11347;52.030;4.690;2022-10-19T08:01:30;2.53;;;0.90;;
22359;SDS011;11347;52.030;4.690;2022-10-19T08:03:58;4.40;;;0.80;;
22359;SDS011;11347;52.030;4.690;2022-10-19T08:06:25;2.93;;;1.00;;
22359;SDS011;11347;52.030;4.690;2022-10-19T08:08:51;4.20;;;0.93;;
22359;SDS011;11347;52.030;4.690;2022-10-19T08:11:19;3.73;;;0.87;;
22359;SDS011;11347;52.030;4.690;2022-10-19T08:13:48;3.60;;;0.93;;
22359;SDS011;11347;52.030;4.690;2022-10-19T08:18:52;1.30;;;0.60;;
22359;SDS011;11347;52.030;4.690;2022-10-19T08:21:20;2.07;;;0.90;;
22359;SDS011;11347;52.030;4.690;2022-10-19T08:23:45;3.80;;;0.80;;
22359;SDS011;11347;52.030;4.690;2022-10-19T08:26:11;4.17;;;0.70;;
22359;SDS011;11347;52.030;4.690;2022-10-19T08:28:36;2.93;;;0.80;;
22359;SDS011;11347;52.030;4.690;2022-10-19T08:31:12;3.63;;;0.87;;
22359;SDS011;11347;52.030;4.690;2022-10-19T08:33:42;3.03;;;0.60;;
22359;SDS011;11347;52.030;4.690;2022-10-19T08:36:09;2.23;;;0.83;;
22359;SDS011;11347;52.030;4.690;2022-10-19T08:38:36;1.93;;;0.70;;
22359;SDS011;11347;52.030;4.690;2022-10-19T08:41:22;1.67;;;0.70;;
22359;SDS011;11347;52.030;4.690;2022-10-19T08:49:57;1.43;;;0.70;;
22359;SDS011;11347;52.030;4.690;2022-10-19T08:52:29;2.87;;;0.83;;
22359;SDS011;11347;52.030;4.690;2022-10-19T08:55:00;4.73;;;0.73;;
22359;SDS011;11347;52.030;4.690;2022-10-19T09:00:10;1.43;;;0.50;;
22359;SDS011;11347;52.030;4.690;2022-10-19T09:03:24;3.33;;;0.60;;
22359;SDS011;11347;52.030;4.690;2022-10-19T09:05:39;2.00;;;0.77;;
22359;SDS011;11347;52.030;4.690;2022-10-19T09:08:26;2.37;;;0.60;;
22359;SDS011;11347;52.030;4.690;2022-10-19T09:10:52;4.13;;;0.70;;
22359;SDS011;11347;52.030;4.690;2022-10-19T09:15:58;4.17;;;0.80;;
22359;SDS011;11347;52.030;4.690;2022-10-19T09:18:26;3.10;;;0.60;;
22359;SDS011;11347;52.030;4.690;2022-10-19T09:20:57;1.67;;;0.63;;
22359;SDS011;11347;52.030;4.690;2022-10-19T09:23:28;2.87;;;0.70;;
22359;SDS011;11347;52.030;4.690;2022-10-19T09:26:00;2.03;;;0.70;;
22359;SDS011;11347;52.030;4.690;2022-10-19T09:29:00;3.50;;;0.93;;
22359;SDS011;11347;52.030;4.690;2022-10-19T09:31:24;1.97;;;0.50;;
22359;SDS011;11347;52.030;4.690;2022-10-19T09:33:56;2.00;;;0.80;;
22359;SDS011;11347;52.030;4.690;2022-10-19T09:36:36;2.30;;;0.70;;
22359;SDS011;11347;52.030;4.690;2022-10-19T09:39:05;3.60;;;0.80;;
22359;SDS011;11347;52.030;4.690;2022-10-19T09:41:31;2.80;;;0.50;;
22359;SDS011;11347;52.030;4.690;2022-10-19T09:43:57;3.03;;;0.70;;
22359;SDS011;11347;52.030;4.690;2022-10-19T09:48:59;4.07;;;0.60;;
22359;SDS011;11347;52.030;4.690;2022-10-19T09:51:37;2.87;;;0.63;;
22359;SDS011;11347;52.030;4.690;2022-10-19T09:54:31;1.83;;;0.60;;
22359;SDS011;11347;52.030;4.690;2022-10-19T09:57:02;3.20;;;0.77;;
22359;SDS011;11347;52.030;4.690;2022-10-19T09:59:30;2.50;;;0.50;;
22359;SDS011;11347;52.030;4.690;2022-10-19T10:04:30;2.30;;;0.70;;
22359;SDS011;11347;52.030;4.690;2022-10-19T10:06:56;2.67;;;0.50;;
22359;SDS011;11347;52.030;4.690;2022-10-19T10:09:24;1.80;;;0.60;;
22359;SDS011;11347;52.030;4.690;2022-10-19T10:11:53;1.90;;;0.50;;
22359;SDS011;11347;52.030;4.690;2022-10-19T10:14:27;1.03;;;0.40;;
22359;SDS011;11347;52.030;4.690;2022-10-19T10:16:56;2.23;;;0.60;;
22359;SDS011;11347;52.030;4.690;2022-10-19T10:19:28;2.97;;;0.73;;
22359;SDS011;11347;52.030;4.690;2022-10-19T10:21:56;1.80;;;0.60;;
22359;SDS011;11347;52.030;4.690;2022-10-19T10:24:23;2.27;;;0.60;;
22359;SDS011;11347;52.030;4.690;2022-10-19T10:26:56;3.63;;;0.70;;
22359;SDS011;11347;52.030;4.690;2022-10-19T10:29:27;1.93;;;0.50;;
22359;SDS011;11347;52.030;4.690;2022-10-19T10:32:07;3.67;;;0.57;;
22359;SDS011;11347;52.030;4.690;2022-10-19T10:34:57;2.17;;;0.40;;
22359;SDS011;11347;52.030;4.690;2022-10-19T10:39:59;2.83;;;0.50;;
22359;SDS011;11347;52.030;4.690;2022-10-19T10:42:27;1.63;;;0.50;;
22359;SDS011;11347;52.030;4.690;2022-10-19T10:45:00;3.20;;;0.87;;
22359;SDS011;11347;52.030;4.690;2022-10-19T10:47:26;2.63;;;0.70;;
22359;SDS011;11347;52.030;4.690;2022-10-19T10:49:55;2.23;;;0.60;;
22359;SDS011;11347;52.030;4.690;2022-10-19T10:52:27;1.47;;;0.57;;
22359;SDS011;11347;52.030;4.690;2022-10-19T10:57:37;2.07;;;0.60;;
22359;SDS011;11347;52.030;4.690;2022-10-19T11:00:13;0.93;;;0.40;;
22359;SDS011;11347;52.030;4.690;2022-10-19T11:07:48;3.03;;;0.73;;
22359;SDS011;11347;52.030;4.690;2022-10-19T11:10:23;1.70;;;0.60;;
22359;SDS011;11347;52.030;4.690;2022-10-19T11:12:58;1.97;;;0.60;;
22359;SDS011;11347;52.030;4.690;2022-10-19T11:15:58;3.03;;;0.50;;
22359;SDS011;11347;52.030;4.690;2022-10-19T11:18:35;2.73;;;0.70;;
22359;SDS011;11347;52.030;4.690;2022-10-19T11:21:11;2.43;;;0.40;;
22359;SDS011;11347;52.030;4.690;2022-10-19T11:23:46;2.57;;;0.60;;
22359;SDS011;11347;52.030;4.690;2022-10-19T11:29:36;2.63;;;0.70;;
22359;SDS011;11347;52.030;4.690;2022-10-19T11:35:03;4.97;;;1.00;;
22359;SDS011;11347;52.030;4.690;2022-10-19T11:37:38;4.30;;;0.70;;
22359;SDS011;11347;52.030;4.690;2022-10-19T11:51:34;3.77;;;0.70;;
22359;SDS011;11347;52.030;4.690;2022-10-19T11:56:58;1.87;;;0.50;;
22359;SDS011;11347;52.030;4.690;2022-10-19T11:59:42;2.13;;;0.50;;
22359;SDS011;11347;52.030;4.690;2022-10-19T12:02:29;1.77;;;0.40;;
22359;SDS011;11347;52.030;4.690;2022-10-19T12:05:10;2.47;;;0.60;;
22359;SDS011;11347;52.030;4.690;2022-10-19T12:10:56;3.83;;;0.53;;
22359;SDS011;11347;52.030;4.690;2022-10-19T12:13:39;4.30;;;0.67;;
22359;SDS011;11347;52.030;4.690;2022-10-19T12:16:09;1.30;;;0.50;;
22359;SDS011;11347;52.030;4.690;2022-10-19T12:18:39;1.13;;;0.50;;
22359;SDS011;11347;52.030;4.690;2022-10-19T12:21:23;2.63;;;0.50;;
22359;SDS011;11347;52.030;4.690;2022-10-19T12:23:53;1.57;;;0.50;;
22359;SDS011;11347;52.030;4.690;2022-10-19T12:26:24;2.00;;;0.47;;
22359;SDS011;11347;52.030;4.690;2022-10-19T12:28:54;3.23;;;0.70;;
22359;SDS011;11347;52.030;4.690;2022-10-19T12:31:24;1.93;;;0.60;;
22359;SDS011;11347;52.030;4.690;2022-10-19T12:34:05;2.80;;;0.40;;
22359;SDS011;11347;52.030;4.690;2022-10-19T12:39:41;3.07;;;0.70;;
22359;SDS011;11347;52.030;4.690;2022-10-19T12:42:29;1.10;;;0.50;;
22359;SDS011;11347;52.030;4.690;2022-10-19T12:53:34;3.10;;;0.70;;
22359;SDS011;11347;52.030;4.690;2022-10-19T12:58:52;2.90;;;0.50;;
22359;SDS011;11347;52.030;4.690;2022-10-19T13:01:27;1.93;;;0.50;;
22359;SDS011;11347;52.030;4.690;2022-10-19T13:04:12;2.63;;;0.50;;
22359;SDS011;11347;52.030;4.690;2022-10-19T13:09:22;4.37;;;0.57;;
22359;SDS011;11347;52.030;4.690;2022-10-19T13:14:43;1.53;;;0.43;;
22359;SDS011;11347;52.030;4.690;2022-10-19T13:22:38;1.90;;;0.67;;
22359;SDS011;11347;52.030;4.690;2022-10-19T13:27:51;3.37;;;0.60;;
22359;SDS011;11347;52.030;4.690;2022-10-19T13:40:58;1.97;;;0.67;;
22359;SDS011;11347;52.030;4.690;2022-10-19T13:46:12;1.17;;;0.50;;
22359;SDS011;11347;52.030;4.690;2022-10-19T13:54:00;1.47;;;0.40;;
22359;SDS011;11347;52.030;4.690;2022-10-19T13:56:51;3.13;;;0.50;;
22359;SDS011;11347;52.030;4.690;2022-10-19T13:59:28;1.70;;;0.50;;
22359;SDS011;11347;52.030;4.690;2022-10-19T14:05:33;3.53;;;0.73;;
22359;SDS011;11347;52.030;4.690;2022-10-19T14:11:13;2.13;;;0.50;;
22359;SDS011;11347;52.030;4.690;2022-10-19T14:13:43;1.83;;;0.40;;
22359;SDS011;11347;52.030;4.690;2022-10-19T14:16:16;1.80;;;0.60;;
22359;SDS011;11347;52.030;4.690;2022-10-19T14:18:53;2.97;;;0.60;;
22359;SDS011;11347;52.030;4.690;2022-10-19T14:21:30;2.70;;;0.60;;
22359;SDS011;11347;52.030;4.690;2022-10-19T14:23:57;2.00;;;0.63;;
22359;SDS011;11347;52.030;4.690;2022-10-19T14:26:24;1.67;;;0.50;;
22359;SDS011;11347;52.030;4.690;2022-10-19T14:28:55;1.60;;;0.50;;
22359;SDS011;11347;52.030;4.690;2022-10-19T14:31:23;2.77;;;0.47;;
22359;SDS011;11347;52.030;4.690;2022-10-19T14:33:52;2.03;;;0.60;;
22359;SDS011;11347;52.030;4.690;2022-10-19T14:36:22;3.37;;;0.60;;
22359;SDS011;11347;52.030;4.690;2022-10-19T14:38:52;1.97;;;0.40;;
22359;SDS011;11347;52.030;4.690;2022-10-19T14:41:30;2.50;;;0.57;;
22359;SDS011;11347;52.030;4.690;2022-10-19T14:44:01;0.97;;;0.60;;
22359;SDS011;11347;52.030;4.690;2022-10-19T14:46:51;2.43;;;0.50;;
22359;SDS011;11347;52.030;4.690;2022-10-19T14:49:17;2.03;;;0.50;;
22359;SDS011;11347;52.030;4.690;2022-10-19T14:51:47;2.40;;;0.50;;
22359;SDS011;11347;52.030;4.690;2022-10-19T14:54:22;2.30;;;0.70;;
22359;SDS011;11347;52.030;4.690;2022-10-19T14:56:58;1.57;;;0.50;;
22359;SDS011;11347;52.030;4.690;2022-10-19T15:01:57;2.00;;;0.50;;
22359;SDS011;11347;52.030;4.690;2022-10-19T15:04:26;2.07;;;0.50;;
22359;SDS011;11347;52.030;4.690;2022-10-19T15:07:00;1.50;;;0.60;;
22359;SDS011;11347;52.030;4.690;2022-10-19T15:09:29;1.53;;;0.47;;
22359;SDS011;11347;52.030;4.690;2022-10-19T15:12:07;2.50;;;0.60;;
22359;SDS011;11347;52.030;4.690;2022-10-19T15:14:38;2.30;;;0.50;;
22359;SDS011;11347;52.030;4.690;2022-10-19T15:17:14;2.50;;;0.53;;
22359;SDS011;11347;52.030;4.690;2022-10-19T15:20:19;3.87;;;0.70;;
22359;SDS011;11347;52.030;4.690;2022-10-19T15:22:48;1.77;;;0.57;;
22359;SDS011;11347;52.030;4.690;2022-10-19T15:27:42;3.17;;;0.53;;
22359;SDS011;11347;52.030;4.690;2022-10-19T15:32:42;4.00;;;0.70;;
22359;SDS011;11347;52.030;4.690;2022-10-19T15:37:37;1.67;;;0.50;;
22359;SDS011;11347;52.030;4.690;2022-10-19T15:40:08;1.40;;;0.50;;
22359;SDS011;11347;52.030;4.690;2022-10-19T15:42:43;0.93;;;0.47;;
22359;SDS011;11347;52.030;4.690;2022-10-19T15:45:33;1.33;;;0.50;;
22359;SDS011;11347;52.030;4.690;2022-10-19T15:48:13;2.07;;;0.60;;
22359;SDS011;11347;52.030;4.690;2022-10-19T15:50:50;2.97;;;0.60;;
22359;SDS011;11347;52.030;4.690;2022-10-19T15:53:16;2.30;;;0.80;;
22359;SDS011;11347;52.030;4.690;2022-10-19T15:55:43;1.20;;;0.50;;
22359;SDS011;11347;52.030;4.690;2022-10-19T15:58:09;2.20;;;0.60;;
22359;SDS011;11347;52.030;4.690;2022-10-19T16:00:36;1.60;;;0.57;;
22359;SDS011;11347;52.030;4.690;2022-10-19T16:03:01;2.50;;;0.60;;
22359;SDS011;11347;52.030;4.690;2022-10-19T16:05:27;1.13;;;0.70;;
22359;SDS011;11347;52.030;4.690;2022-10-19T16:07:53;2.30;;;0.57;;
22359;SDS011;11347;52.030;4.690;2022-10-19T16:10:21;0.90;;;0.40;;
22359;SDS011;11347;52.030;4.690;2022-10-19T16:12:50;1.30;;;0.40;;
22359;SDS011;11347;52.030;4.690;2022-10-19T16:15:17;4.77;;;0.73;;
22359;SDS011;11347;52.030;4.690;2022-10-19T16:17:48;1.77;;;0.50;;
22359;SDS011;11347;52.030;4.690;2022-10-19T16:20:16;2.23;;;0.70;;
22359;SDS011;11347;52.030;4.690;2022-10-19T16:22:42;2.23;;;0.60;;
22359;SDS011;11347;52.030;4.690;2022-10-19T16:25:09;3.37;;;0.70;;
22359;SDS011;11347;52.030;4.690;2022-10-19T16:27:35;3.17;;;0.80;;
22359;SDS011;11347;52.030;4.690;2022-10-19T16:30:00;2.70;;;0.73;;
22359;SDS011;11347;52.030;4.690;2022-10-19T16:32:26;3.07;;;0.90;;
22359;SDS011;11347;52.030;4.690;2022-10-19T16:34:52;2.43;;;0.70;;
22359;SDS011;11347;52.030;4.690;2022-10-19T16:37:17;2.33;;;0.60;;
22359;SDS011;11347;52.030;4.690;2022-10-19T16:39:43;3.13;;;0.70;;
22359;SDS011;11347;52.030;4.690;2022-10-19T16:42:08;2.10;;;0.60;;
22359;SDS011;11347;52.030;4.690;2022-10-19T16:44:34;1.53;;;0.60;;
22359;SDS011;11347;52.030;4.690;2022-10-19T16:46:59;2.13;;;0.70;;
22359;SDS011;11347;52.030;4.690;2022-10-19T16:49:25;5.03;;;1.07;;
22359;SDS011;11347;52.030;4.690;2022-10-19T16:51:51;2.53;;;0.70;;
22359;SDS011;11347;52.030;4.690;2022-10-19T16:54:16;2.77;;;0.60;;
22359;SDS011;11347;52.030;4.690;2022-10-19T16:56:46;4.07;;;0.93;;
22359;SDS011;11347;52.030;4.690;2022-10-19T16:59:13;3.00;;;0.80;;
22359;SDS011;11347;52.030;4.690;2022-10-19T17:01:41;2.97;;;0.90;;
22359;SDS011;11347;52.030;4.690;2022-10-19T17:04:08;2.17;;;0.70;;
22359;SDS011;11347;52.030;4.690;2022-10-19T17:06:38;2.73;;;0.80;;
22359;SDS011;11347;52.030;4.690;2022-10-19T17:09:04;3.03;;;0.73;;
22359;SDS011;11347;52.030;4.690;2022-10-19T17:11:31;6.53;;;1.00;;
22359;SDS011;11347;52.030;4.690;2022-10-19T17:13:59;2.17;;;0.80;;
22359;SDS011;11347;52.030;4.690;2022-10-19T17:16:27;1.93;;;0.90;;